createdAt,value
2018-03-01T00:00:51.799Z,-5.30
2018-03-01T00:03:20.089Z,-5.20
2018-03-01T00:05:47.608Z,-5.20
2018-03-01T00:08:15.131Z,-5.10
2018-03-01T00:10:42.656Z,-5.30
2018-03-01T00:13:10.963Z,-5.30
2018-03-01T00:15:38.525Z,-5.30
2018-03-01T00:18:06.054Z,-5.30
2018-03-01T00:20:34.365Z,-5.30
2018-03-01T00:23:01.887Z,-5.30
2018-03-01T00:25:30.159Z,-5.30
2018-03-01T00:27:58.435Z,-5.40
2018-03-01T00:30:26.748Z,-5.50
2018-03-01T00:32:54.263Z,-5.50
2018-03-01T00:35:22.544Z,-5.40
2018-03-01T00:37:50.844Z,-5.30
2018-03-01T00:40:18.345Z,-5.40
2018-03-01T00:42:45.842Z,-5.40
2018-03-01T00:45:14.143Z,-5.40
2018-03-01T00:47:41.681Z,-5.40
2018-03-01T00:50:09.977Z,-5.50
2018-03-01T00:52:37.526Z,-5.50
2018-03-01T00:55:05.024Z,-5.50
2018-03-01T00:57:32.514Z,-5.50
2018-03-01T01:00:00.828Z,-5.60
2018-03-01T01:02:28.346Z,-5.60
2018-03-01T01:04:56.682Z,-5.60
2018-03-01T01:07:24.182Z,-5.60
2018-03-01T01:09:52.463Z,-5.70
2018-03-01T01:12:20.747Z,-5.70
2018-03-01T01:14:49.048Z,-5.80
2018-03-01T01:17:16.562Z,-5.80
2018-03-01T01:19:44.088Z,-5.70
2018-03-01T01:22:11.619Z,-5.70
2018-03-01T01:24:39.125Z,-5.90
2018-03-01T01:27:06.654Z,-5.80
2018-03-01T01:29:34.154Z,-5.90
2018-03-01T01:32:01.693Z,-5.90
2018-03-01T01:34:29.203Z,-5.90
2018-03-01T01:36:56.733Z,-5.90
2018-03-01T01:39:24.234Z,-5.90
2018-03-01T01:41:51.786Z,-5.80
2018-03-01T01:44:19.299Z,-5.90
2018-03-01T01:46:46.811Z,-5.90
2018-03-01T01:49:14.342Z,-5.90
2018-03-01T01:51:41.893Z,-5.90
2018-03-01T01:54:10.186Z,-5.90
2018-03-01T01:56:37.695Z,-5.90
2018-03-01T01:59:05.229Z,-5.90
2018-03-01T02:01:32.733Z,-5.90
2018-03-01T02:04:00.258Z,-6.00
2018-03-01T02:06:27.761Z,-6.00
2018-03-01T02:08:55.297Z,-6.00
2018-03-01T02:11:22.806Z,-6.00
2018-03-01T02:13:50.304Z,-6.10
2018-03-01T02:16:17.844Z,-5.90
2018-03-01T02:18:45.364Z,-6.10
2018-03-01T02:21:13.662Z,-6.10
2018-03-01T02:23:41.169Z,-6.10
2018-03-01T02:26:08.693Z,-6.00
2018-03-01T02:28:36.191Z,-6.00
2018-03-01T02:31:03.712Z,-6.00
2018-03-01T02:33:31.205Z,-6.00
2018-03-01T02:35:58.750Z,-6.00
2018-03-01T02:38:26.287Z,-5.90
2018-03-01T02:40:53.800Z,-5.90
2018-03-01T02:43:22.114Z,-5.90
2018-03-01T02:45:49.627Z,-5.90
2018-03-01T02:48:17.892Z,-6.00
2018-03-01T02:50:45.414Z,-6.10
2018-03-01T02:53:12.915Z,-5.90
2018-03-01T02:55:41.206Z,-6.00
2018-03-01T02:58:09.475Z,-6.00
2018-03-01T03:00:37.767Z,-6.00
2018-03-01T03:03:05.275Z,-6.00
2018-03-01T03:05:32.802Z,-6.00
2018-03-01T03:08:00.321Z,-6.10
2018-03-01T03:10:27.839Z,-6.20
2018-03-01T03:12:55.350Z,-6.10
2018-03-01T03:15:22.878Z,-6.20
2018-03-01T03:17:50.420Z,-6.10
2018-03-01T03:20:17.958Z,-6.00
2018-03-01T03:22:45.470Z,-6.10
2018-03-01T03:25:12.981Z,-6.00
2018-03-01T03:27:40.500Z,-6.10
2018-03-01T03:30:08.010Z,-6.10
2018-03-01T03:32:35.545Z,-6.10
2018-03-01T03:35:03.087Z,-6.00
2018-03-01T03:37:30.606Z,-6.10
2018-03-01T03:39:58.186Z,-6.10
2018-03-01T03:42:26.468Z,-6.10
2018-03-01T03:44:53.973Z,-6.10
2018-03-01T03:47:21.491Z,-6.00
2018-03-01T03:49:49.781Z,-6.10
2018-03-01T03:52:17.282Z,-6.10
2018-03-01T03:54:44.792Z,-6.00
2018-03-01T03:57:12.372Z,-6.00
2018-03-01T03:59:39.911Z,-6.10
2018-03-01T04:02:07.463Z,-5.90
2018-03-01T04:04:35.749Z,-6.10
2018-03-01T04:07:04.038Z,-6.00
2018-03-01T04:09:31.577Z,-6.00
2018-03-01T04:11:59.848Z,-6.00
2018-03-01T04:14:28.123Z,-6.00
2018-03-01T04:16:55.655Z,-6.00
2018-03-01T04:19:23.162Z,-6.00
2018-03-01T04:21:50.683Z,-6.00
2018-03-01T04:24:18.188Z,-6.00
2018-03-01T04:26:45.720Z,-5.90
2018-03-01T04:29:14.002Z,-6.10
2018-03-01T04:31:42.297Z,-6.10
2018-03-01T04:34:09.815Z,-6.10
2018-03-01T04:36:37.325Z,-5.90
2018-03-01T04:39:04.853Z,-5.90
2018-03-01T04:41:32.366Z,-5.90
2018-03-01T04:43:59.887Z,-6.10
2018-03-01T04:46:27.380Z,-6.00
2018-03-01T04:48:54.987Z,-5.90
2018-03-01T04:51:23.263Z,-6.00
2018-03-01T04:53:51.537Z,-5.90
2018-03-01T04:56:19.836Z,-6.00
2018-03-01T04:58:47.340Z,-6.00
2018-03-01T05:01:14.863Z,-5.90
2018-03-01T05:03:42.361Z,-5.90
2018-03-01T05:06:09.883Z,-6.10
2018-03-01T05:08:37.390Z,-5.90
2018-03-01T05:11:05.719Z,-5.90
2018-03-01T05:13:33.271Z,-5.90
2018-03-01T05:16:00.791Z,-6.10
2018-03-01T05:18:29.811Z,-5.90
2018-03-01T05:20:57.569Z,-5.90
2018-03-01T05:23:25.172Z,-5.90
2018-03-01T05:25:53.564Z,-6.10
2018-03-01T05:28:21.303Z,-6.10
2018-03-01T05:30:48.844Z,-5.90
2018-03-01T05:33:16.370Z,-5.80
2018-03-01T05:35:44.643Z,-5.80
2018-03-01T05:38:12.913Z,-5.70
2018-03-01T05:40:41.231Z,-5.80
2018-03-01T05:43:08.763Z,-5.80
2018-03-01T05:45:37.028Z,-5.80
2018-03-01T05:48:05.327Z,-5.80
2018-03-01T05:50:32.855Z,-5.90
2018-03-01T05:53:01.163Z,-5.70
2018-03-01T05:55:28.693Z,-5.70
2018-03-01T05:57:56.976Z,-5.70
2018-03-01T06:00:25.314Z,-5.70
2018-03-01T06:02:52.823Z,-5.80
2018-03-01T06:05:20.380Z,-5.70
2018-03-01T06:07:48.640Z,-5.60
2018-03-01T06:10:16.142Z,-5.60
2018-03-01T06:12:43.674Z,-5.70
2018-03-01T06:15:11.968Z,-5.70
2018-03-01T06:17:39.501Z,-5.70
2018-03-01T06:20:07.819Z,-5.80
2018-03-01T06:22:35.326Z,-5.80
2018-03-01T06:25:02.858Z,-5.60
2018-03-01T06:27:30.357Z,-5.60
2018-03-01T06:29:58.619Z,-5.40
2018-03-01T06:32:26.135Z,-5.40
2018-03-01T06:34:53.681Z,-5.50
2018-03-01T06:37:21.211Z,-5.50
2018-03-01T06:39:49.499Z,-5.60
2018-03-01T06:42:17.047Z,-5.60
2018-03-01T06:44:45.312Z,-5.60
2018-03-01T06:47:13.634Z,-5.50
2018-03-01T06:49:41.132Z,-5.50
2018-03-01T06:52:08.620Z,-5.40
2018-03-01T06:54:36.143Z,-5.40
2018-03-01T06:57:03.648Z,-5.50
2018-03-01T06:59:31.187Z,-5.30
2018-03-01T07:01:59.463Z,-5.60
2018-03-01T07:04:27.729Z,-5.50
2018-03-01T07:06:55.286Z,-5.50
2018-03-01T07:09:22.798Z,-5.30
2018-03-01T07:11:50.328Z,-5.40
2018-03-01T07:14:17.879Z,-5.70
2018-03-01T07:16:46.168Z,-5.60
2018-03-01T07:19:13.697Z,-5.60
2018-03-01T07:21:41.932Z,-5.50
2018-03-01T07:24:09.473Z,-5.40
2018-03-01T07:26:37.694Z,-5.60
2018-03-01T07:29:05.210Z,-5.40
2018-03-01T07:31:32.751Z,-5.30
2018-03-01T07:34:00.317Z,-5.10
2018-03-01T07:36:27.849Z,-5.20
2018-03-01T07:38:56.134Z,-5.20
2018-03-01T07:41:24.418Z,-5.00
2018-03-01T07:43:51.925Z,-5.00
2018-03-01T07:46:19.459Z,-4.90
2018-03-01T07:48:46.977Z,-5.00
2018-03-01T07:51:15.279Z,-5.00
2018-03-01T07:53:42.834Z,-5.00
2018-03-01T07:56:10.342Z,-5.00
2018-03-01T07:58:37.885Z,-4.70
2018-03-01T08:01:05.408Z,-4.60
2018-03-01T08:03:32.947Z,-4.50
2018-03-01T08:06:01.245Z,-4.70
2018-03-01T08:08:28.764Z,-4.70
2018-03-01T08:10:56.283Z,-4.70
2018-03-01T08:13:23.815Z,-4.80
2018-03-01T08:15:51.337Z,-4.70
2018-03-01T08:18:18.866Z,-4.60
2018-03-01T08:20:46.383Z,-4.60
2018-03-01T08:23:14.660Z,-4.60
2018-03-01T08:25:42.172Z,-4.60
2018-03-01T08:28:09.690Z,-4.40
2018-03-01T08:30:37.218Z,-4.30
2018-03-01T08:33:05.523Z,-4.10
2018-03-01T08:35:33.067Z,-4.10
2018-03-01T08:38:01.352Z,-4.20
2018-03-01T08:40:29.638Z,-4.20
2018-03-01T08:42:57.146Z,-4.20
2018-03-01T08:45:24.684Z,-4.10
2018-03-01T08:47:52.223Z,-4.50
2018-03-01T08:50:19.762Z,-4.40
2018-03-01T08:52:48.038Z,-4.30
2018-03-01T08:55:16.347Z,-4.00
2018-03-01T08:57:43.844Z,-4.00
2018-03-01T09:00:11.369Z,-4.10
2018-03-01T09:02:38.897Z,-4.00
2018-03-01T09:05:06.427Z,-3.90
2018-03-01T09:07:34.755Z,-3.70
2018-03-01T09:10:02.247Z,-3.80
2018-03-01T09:12:29.824Z,-3.70
2018-03-01T09:14:57.345Z,-3.50
2018-03-01T09:17:24.896Z,-3.40
2018-03-01T09:19:52.415Z,-3.50
2018-03-01T09:22:20.702Z,-3.50
2018-03-01T09:24:48.209Z,-3.60
2018-03-01T09:27:15.743Z,-3.30
2018-03-01T09:29:43.279Z,-3.50
2018-03-01T09:32:10.812Z,-3.20
2018-03-01T09:34:39.136Z,-2.70
2018-03-01T09:37:06.677Z,-2.80
2018-03-01T09:39:34.213Z,-2.50
2018-03-01T09:42:02.497Z,-2.70
2018-03-01T09:44:30.299Z,-2.70
2018-03-01T09:46:57.791Z,-2.50
2018-03-01T09:49:25.331Z,-2.60
2018-03-01T09:51:52.868Z,-2.80
2018-03-01T09:54:20.379Z,-2.80
2018-03-01T09:56:48.672Z,-2.90
2018-03-01T09:59:16.958Z,-2.70
2018-03-01T10:01:44.504Z,-2.70
2018-03-01T10:04:12.820Z,-2.40
2018-03-01T10:06:41.115Z,-2.50
2018-03-01T10:09:08.624Z,-2.50
2018-03-01T10:11:36.150Z,-2.20
2018-03-01T10:14:03.660Z,-2.20
2018-03-01T10:16:31.197Z,-2.40
2018-03-01T10:18:58.751Z,-2.20
2018-03-01T10:21:26.276Z,-1.90
2018-03-01T10:23:53.802Z,-1.70
2018-03-01T10:26:21.334Z,-1.80
2018-03-01T10:28:48.859Z,-1.90
2018-03-01T10:31:16.422Z,-2.00
2018-03-01T10:33:47.615Z,-1.70
2018-03-01T10:36:15.176Z,-1.50
2018-03-01T10:38:42.675Z,-1.50
2018-03-01T10:41:10.216Z,-1.50
2018-03-01T10:43:37.739Z,-1.60
2018-03-01T10:46:05.312Z,-1.50
2018-03-01T10:48:32.818Z,-1.60
2018-03-01T10:51:00.327Z,-1.40
2018-03-01T10:53:27.852Z,-1.80
2018-03-01T10:55:56.192Z,-1.40
2018-03-01T10:58:23.702Z,-1.40
2018-03-01T11:00:56.851Z,-1.40
2018-03-01T11:03:24.372Z,-1.50
2018-03-01T11:05:51.878Z,-1.50
2018-03-01T11:08:19.400Z,-1.40
2018-03-01T11:10:46.933Z,-1.20
2018-03-01T11:13:15.220Z,-1.40
2018-03-01T11:15:42.739Z,-1.50
2018-03-01T11:18:10.253Z,-1.50
2018-03-01T11:20:37.860Z,-1.40
2018-03-01T11:23:06.181Z,-1.10
2018-03-01T11:25:33.717Z,-1.20
2018-03-01T11:28:01.303Z,-1.10
2018-03-01T11:30:29.666Z,-0.80
2018-03-01T11:32:57.238Z,-0.80
2018-03-01T11:35:24.770Z,-0.50
2018-03-01T11:37:53.061Z,-0.80
2018-03-01T11:40:20.599Z,-0.90
2018-03-01T11:42:48.882Z,-1.00
2018-03-01T11:45:16.393Z,-1.00
2018-03-01T11:47:43.932Z,-0.60
2018-03-01T11:50:11.468Z,-0.40
2018-03-01T11:52:38.999Z,-0.20
2018-03-01T11:55:07.318Z,0.00
2018-03-01T11:57:34.831Z,0.00
2018-03-01T12:00:03.173Z,0.20
2018-03-01T12:02:30.707Z,0.20
2018-03-01T12:04:58.211Z,0.10
2018-03-01T12:07:25.736Z,0.20
2018-03-01T12:09:53.278Z,0.70
2018-03-01T12:12:20.840Z,0.70
2018-03-01T12:14:49.377Z,1.10
2018-03-01T12:17:16.978Z,1.10
2018-03-01T12:19:44.499Z,1.20
2018-03-01T12:22:12.051Z,1.30
2018-03-01T12:24:40.355Z,0.90
2018-03-01T12:27:08.671Z,0.30
2018-03-01T12:29:36.196Z,0.20
2018-03-01T12:32:03.716Z,0.30
2018-03-01T12:34:31.223Z,0.40
2018-03-01T12:36:59.166Z,0.60
2018-03-01T12:39:26.764Z,0.80
2018-03-01T12:41:54.288Z,1.00
2018-03-01T12:44:22.591Z,1.00
2018-03-01T12:46:50.111Z,0.90
2018-03-01T12:49:17.631Z,1.00
2018-03-01T12:51:45.180Z,0.60
2018-03-01T12:54:12.738Z,0.50
2018-03-01T12:56:40.267Z,0.80
2018-03-01T12:59:08.562Z,0.90
2018-03-01T13:01:36.125Z,0.90
2018-03-01T13:04:03.638Z,1.00
2018-03-01T13:06:31.171Z,1.10
2018-03-01T13:08:59.687Z,1.10
2018-03-01T13:11:28.051Z,0.90
2018-03-01T13:13:55.599Z,0.90
2018-03-01T13:16:23.133Z,0.90
2018-03-01T13:18:50.667Z,0.90
2018-03-01T13:21:18.183Z,1.20
2018-03-01T13:23:45.749Z,1.40
2018-03-01T13:26:13.249Z,1.60
2018-03-01T13:28:40.781Z,1.60
2018-03-01T13:31:23.955Z,1.50
2018-03-01T13:33:57.250Z,1.50
2018-03-01T13:36:25.730Z,1.50
2018-03-01T13:38:53.239Z,1.60
2018-03-01T13:41:21.560Z,1.80
2018-03-01T13:43:49.122Z,1.80
2018-03-01T13:49:14.208Z,2.10
2018-03-01T13:51:42.484Z,2.20
2018-03-01T13:54:10.768Z,1.90
2018-03-01T13:56:38.274Z,1.90
2018-03-01T13:59:05.916Z,1.80
2018-03-01T14:01:33.430Z,1.80
2018-03-01T14:04:01.767Z,2.20
2018-03-01T14:06:46.094Z,2.20
2018-03-01T14:09:13.581Z,2.20
2018-03-01T14:11:41.110Z,2.30
2018-03-01T14:14:14.193Z,2.40
2018-03-01T14:16:41.770Z,2.40
2018-03-01T14:19:23.159Z,2.40
2018-03-01T14:21:53.309Z,2.30
2018-03-01T14:24:20.805Z,2.30
2018-03-01T14:26:49.103Z,2.40
2018-03-01T14:29:19.585Z,2.50
2018-03-01T14:31:47.884Z,2.10
2018-03-01T14:34:19.807Z,2.10
2018-03-01T14:43:27.615Z,2.30
2018-03-01T14:45:55.891Z,2.30
2018-03-01T14:48:23.416Z,2.30
2018-03-01T14:50:51.701Z,2.50
2018-03-01T14:53:19.229Z,2.50
2018-03-01T14:55:46.743Z,2.40
2018-03-01T14:58:14.290Z,2.30
2018-03-01T15:00:42.668Z,2.20
2018-03-01T15:03:10.220Z,2.10
2018-03-01T15:05:39.677Z,2.20
2018-03-01T15:08:07.198Z,2.30
2018-03-01T15:10:34.734Z,2.50
2018-03-01T15:13:02.295Z,2.80
2018-03-01T15:15:29.816Z,2.80
2018-03-01T15:17:57.339Z,2.60
2018-03-01T15:20:24.868Z,2.70
2018-03-01T15:22:52.953Z,2.50
2018-03-01T15:25:20.556Z,2.30
2018-03-01T15:27:49.211Z,2.10
2018-03-01T15:30:16.815Z,1.90
2018-03-01T15:32:45.154Z,1.90
2018-03-01T15:35:12.679Z,1.90
2018-03-01T15:37:40.223Z,2.00
2018-03-01T15:40:08.514Z,2.10
2018-03-01T15:42:36.026Z,2.10
2018-03-01T15:45:03.628Z,2.00
2018-03-01T15:47:31.140Z,2.00
2018-03-01T15:49:58.684Z,2.10
2018-03-01T15:52:26.207Z,2.10
2018-03-01T15:54:53.755Z,2.00
2018-03-01T15:57:22.357Z,1.60
2018-03-01T15:59:50.026Z,1.60
2018-03-01T16:02:17.577Z,1.60
2018-03-01T16:04:45.210Z,1.70
2018-03-01T16:07:12.798Z,1.50
2018-03-01T16:09:40.362Z,1.50
2018-03-01T16:12:07.919Z,1.60
2018-03-01T16:14:35.436Z,1.50
2018-03-01T16:17:03.022Z,1.40
2018-03-01T16:19:30.508Z,1.40
2018-03-01T16:21:58.018Z,1.40
2018-03-01T16:24:25.579Z,1.50
2018-03-01T16:26:53.183Z,1.50
2018-03-01T16:29:20.734Z,1.50
2018-03-01T16:31:48.248Z,1.50
2018-03-01T16:34:15.815Z,1.60
2018-03-01T16:36:43.316Z,1.50
2018-03-01T16:39:10.833Z,1.50
2018-03-01T16:41:39.148Z,1.40
2018-03-01T16:44:06.663Z,1.40
2018-03-01T16:46:34.228Z,1.30
2018-03-01T16:49:02.496Z,1.30
2018-03-01T16:51:30.046Z,1.30
2018-03-01T16:53:57.582Z,1.30
2018-03-01T16:56:25.117Z,1.30
2018-03-01T16:58:52.651Z,1.30
2018-03-01T17:01:20.232Z,1.30
2018-03-01T17:03:47.773Z,1.30
2018-03-01T17:06:16.079Z,1.10
2018-03-01T17:08:43.595Z,1.10
2018-03-01T17:11:11.882Z,1.10
2018-03-01T17:13:40.158Z,1.20
2018-03-01T17:16:08.472Z,1.20
2018-03-01T17:18:36.011Z,1.10
2018-03-01T17:21:03.545Z,1.10
2018-03-01T17:23:32.480Z,1.10
2018-03-01T17:26:00.029Z,1.10
2018-03-01T17:28:27.550Z,1.10
2018-03-01T17:30:55.835Z,1.00
2018-03-01T17:33:24.114Z,1.00
2018-03-01T17:35:52.392Z,1.10
2018-03-01T17:38:20.725Z,1.00
2018-03-01T17:40:48.223Z,1.00
2018-03-01T17:43:16.515Z,1.00
2018-03-01T17:45:44.033Z,1.00
2018-03-01T17:48:11.565Z,1.00
2018-03-01T17:50:39.129Z,1.00
2018-03-01T17:53:06.611Z,1.00
2018-03-01T17:55:34.114Z,0.90
2018-03-01T17:58:01.684Z,1.00
2018-03-01T18:00:29.203Z,1.00
2018-03-01T18:02:57.485Z,0.90
2018-03-01T18:05:25.811Z,0.80
2018-03-01T18:07:53.343Z,0.80
2018-03-01T18:10:20.884Z,0.90
2018-03-01T18:12:49.207Z,0.90
2018-03-01T18:15:16.696Z,0.80
2018-03-01T18:17:44.203Z,0.80
2018-03-01T18:20:11.787Z,0.70
2018-03-01T18:22:39.313Z,0.80
2018-03-01T18:25:06.876Z,0.70
2018-03-01T18:27:34.376Z,0.70
2018-03-01T18:30:01.939Z,0.80
2018-03-01T18:32:29.409Z,0.80
2018-03-01T18:34:56.935Z,0.70
2018-03-01T18:37:24.453Z,0.70
2018-03-01T18:39:52.750Z,0.70
2018-03-01T18:42:20.290Z,0.70
2018-03-01T18:44:48.642Z,0.80
2018-03-01T18:47:16.952Z,0.70
2018-03-01T18:49:44.519Z,0.70
2018-03-01T18:52:12.047Z,0.60
2018-03-01T18:54:40.397Z,0.70
2018-03-01T18:57:07.936Z,0.70
2018-03-01T18:59:35.531Z,0.50
2018-03-01T19:02:03.063Z,0.50
2018-03-01T19:04:30.611Z,0.50
2018-03-01T19:06:58.143Z,0.70
2018-03-01T19:09:25.687Z,0.60
2018-03-01T19:11:53.996Z,0.60
2018-03-01T19:14:21.528Z,0.50
2018-03-01T19:16:49.873Z,0.60
2018-03-01T19:19:17.368Z,0.60
2018-03-01T19:21:44.876Z,0.60
2018-03-01T19:24:12.410Z,0.70
2018-03-01T19:26:40.187Z,0.50
2018-03-01T19:29:08.146Z,0.60
2018-03-01T19:31:35.721Z,0.50
2018-03-01T19:34:03.269Z,0.60
2018-03-01T19:36:31.661Z,0.60
2018-03-01T19:38:59.230Z,0.60
2018-03-01T19:41:26.748Z,0.50
2018-03-01T19:43:54.246Z,0.50
2018-03-01T19:46:21.855Z,0.60
2018-03-01T19:48:49.456Z,0.50
2018-03-01T19:51:17.006Z,0.40
2018-03-01T19:53:44.510Z,0.50
2018-03-01T19:56:12.832Z,0.40
2018-03-01T19:58:40.465Z,0.40
2018-03-01T20:01:08.004Z,0.30
2018-03-01T20:03:36.326Z,0.20
2018-03-01T20:06:03.853Z,0.20
2018-03-01T20:08:32.151Z,0.20
2018-03-01T20:10:59.720Z,0.20
2018-03-01T20:13:27.238Z,0.30
2018-03-01T20:15:55.548Z,0.10
2018-03-01T20:18:23.131Z,0.10
2018-03-01T20:20:50.642Z,0.10
2018-03-01T20:23:18.933Z,0.00
2018-03-01T20:25:46.450Z,0.00
2018-03-01T20:28:14.059Z,0.00
2018-03-01T20:30:41.572Z,0.00
2018-03-01T20:33:09.088Z,-0.10
2018-03-01T20:35:36.708Z,-0.10
2018-03-01T20:38:04.189Z,-0.10
2018-03-01T20:40:31.720Z,-0.10
2018-03-01T20:43:00.025Z,-0.30
2018-03-01T20:45:27.542Z,-0.30
2018-03-01T20:47:55.112Z,-0.30
2018-03-01T20:50:23.402Z,-0.30
2018-03-01T20:52:51.730Z,-0.20
2018-03-01T20:55:19.259Z,-0.30
2018-03-01T20:57:46.774Z,-0.30
2018-03-01T21:00:14.326Z,-0.20
2018-03-01T21:02:41.823Z,-0.30
2018-03-01T21:05:09.350Z,-0.20
2018-03-01T21:07:36.894Z,-0.30
2018-03-01T21:10:04.412Z,-0.30
2018-03-01T21:12:31.948Z,-0.40
2018-03-01T21:15:00.241Z,-0.30
2018-03-01T21:17:27.779Z,-0.30
2018-03-01T21:19:56.053Z,-0.30
2018-03-01T21:22:24.323Z,-0.40
2018-03-01T21:24:55.237Z,-0.40
2018-03-01T21:27:22.744Z,-0.40
2018-03-01T21:29:50.264Z,-0.50
2018-03-01T21:32:17.791Z,-0.40
2018-03-01T21:34:45.317Z,-0.30
2018-03-01T21:37:12.900Z,-0.40
2018-03-01T21:39:40.422Z,-0.50
2018-03-01T21:42:08.729Z,-0.70
2018-03-01T21:44:36.259Z,-0.70
2018-03-01T21:47:07.372Z,-0.60
2018-03-01T21:49:34.915Z,-0.60
2018-03-01T21:52:02.442Z,-0.60
2018-03-01T21:54:29.972Z,-0.60
2018-03-01T21:56:58.317Z,-0.60
2018-03-01T21:59:25.828Z,-0.60
2018-03-01T22:01:53.352Z,-0.60
2018-03-01T22:04:20.877Z,-0.70
2018-03-01T22:06:48.432Z,-0.70
2018-03-01T22:09:15.943Z,-0.80
2018-03-01T22:11:44.279Z,-0.90
2018-03-01T22:14:11.818Z,-0.90
2018-03-01T22:16:39.317Z,-0.80
2018-03-01T22:19:06.886Z,-0.80
2018-03-01T22:21:34.393Z,-0.70
2018-03-01T22:24:01.916Z,-0.70
2018-03-01T22:26:30.195Z,-0.80
2018-03-01T22:28:58.480Z,-0.90
2018-03-01T22:31:26.022Z,-0.90
2018-03-01T22:33:54.340Z,-0.90
2018-03-01T22:36:21.874Z,-1.00
2018-03-01T22:38:50.178Z,-1.00
2018-03-01T22:41:17.712Z,-1.00
2018-03-01T22:43:45.273Z,-0.90
2018-03-01T22:46:12.824Z,-1.00
2018-03-01T22:48:42.765Z,-0.90
2018-03-01T22:51:10.320Z,-0.90
2018-03-01T22:53:37.901Z,-0.90
2018-03-01T22:56:05.406Z,-0.90
2018-03-01T22:58:33.703Z,-0.80
2018-03-01T23:01:01.269Z,-0.80
2018-03-01T23:03:28.775Z,-0.80
2018-03-01T23:05:56.297Z,-0.90
2018-03-01T23:08:23.832Z,-1.00
2018-03-01T23:10:52.129Z,-1.10
2018-03-01T23:13:19.635Z,-1.10
2018-03-01T23:15:47.152Z,-1.10
2018-03-01T23:18:15.459Z,-1.00
2018-03-01T23:20:42.970Z,-1.00
2018-03-01T23:23:10.503Z,-1.00
2018-03-01T23:25:38.785Z,-1.10
2018-03-01T23:28:07.096Z,-1.10
2018-03-01T23:30:34.621Z,-1.20
2018-03-01T23:33:02.164Z,-1.10
2018-03-01T23:35:29.693Z,-1.10
2018-03-01T23:37:57.218Z,-1.20
2018-03-01T23:40:24.745Z,-1.20
2018-03-01T23:42:53.041Z,-1.30
2018-03-01T23:45:20.583Z,-1.30
2018-03-01T23:47:48.121Z,-1.40
2018-03-01T23:50:15.652Z,-1.40
2018-03-01T23:52:43.147Z,-1.30
2018-03-01T23:55:10.704Z,-1.30
2018-03-01T23:57:38.226Z,-1.30
